Time;durP1;ratioP1;P1;durP2;ratioP2;P2;SDS_P1;SDS_P2;PMS_P1;PMS_P2;Temp;Humidity;BMP_temperature;BMP_pressure;BME280_temperature;BME280_humidity;BME280_pressure;Samples;Min_cycle;Max_cycle;Signal;HPM_P1;HPM_P2
2022/12/02 00:00:58;;;;;;;;;;;;;;;;;;6177481;23;20324;-91
2022/12/02 00:03:24;;;;;;;;;;;;;;;;;;6150322;23;20428;-91
2022/12/02 00:05:52;;;;;;;;;;;;;;;;;;6197723;23;19923;-90
2022/12/02 00:08:21;;;;;;;;;;;;;;;;;;6175163;23;20018;-90
2022/12/02 00:10:50;;;;;;;;;;;;;;;;;;6149819;23;20327;-91
2022/12/02 00:13:19;;;;;;;;;;;;;;;;;;6150221;23;19927;-91
2022/12/02 00:15:45;;;;;;;;;;;;;;;;;;6148262;23;19919;-92
2022/12/02 00:18:47;;;;;;;;;;;;;;;;;;6152573;23;19920;-91
2022/12/02 00:21:11;;;;;;;;;;;;;;;;;;6168660;23;19920;-91
2022/12/02 00:23:40;;;;;;;;;;;;;;;;;;6173887;23;20281;-91
2022/12/02 00:26:09;;;;;;;;;;;;;;;;;;6174456;23;20686;-92
2022/12/02 00:28:38;;;;;;;;;;;;;;;;;;6196314;23;20046;-91
2022/12/02 00:31:07;;;;;;;;;;;;;;;;;;6150759;23;19920;-91
2022/12/02 00:33:49;;;;;;;;;;;;;;;;;;6148045;23;19919;-91
2022/12/02 00:36:28;;;;;;;;;;;;;;;;;;;;;
2022/12/02 00:38:57;;;;;;;;;;;;;;;;;;6199196;23;19919;-91
2022/12/02 00:41:25;;;;;;;;;;;;;;;;;;6149790;23;19974;-90
2022/12/02 00:46:36;;;;;;;;;;;;;;;;;;6168878;23;19924;-91
2022/12/02 00:49:02;;;;;;;;;;;;;;;;;;6149040;23;19920;-90
2022/12/02 00:51:28;;;;;;;;;;;;;;;;;;6148133;23;19973;-90
2022/12/02 00:54:04;;;;;;;;;;;;;;;;;;;;;
2022/12/02 00:56:33;;;;;;;;;;;;;;;;;;6139520;23;19927;-90
2022/12/02 00:59:02;;;;;;;;;;;;;;;;;;6142442;23;19921;-90
2022/12/02 01:01:28;;;;;;;;;;;;;;;;;;6140434;23;19927;-90
2022/12/02 01:03:54;;;;;;;;;;;;;;;;;;6138877;23;19924;-90
2022/12/02 01:06:22;;;;;;;;;;;;;;;;;;6140599;23;19971;-91
2022/12/02 01:08:48;;;;;;;;;;;;;;;;;;6140076;23;19921;-90
2022/12/02 01:11:19;;;;;;;;;;;;;;;;;;6142846;23;19975;-90
2022/12/02 01:13:48;;;;;;;;;;;;;;;;;;6141832;23;19927;-91
2022/12/02 01:16:14;;;;;;;;;;;;;;;;;;6141316;23;19921;-91
2022/12/02 01:18:43;;;;;;;;;;;;;;;;;;6140562;23;19920;-92
2022/12/02 01:21:21;;;;;;;;;;;;;;;;;;6142021;23;20831;-91
2022/12/02 01:23:49;;;;;;;;;;;;;;;;;;6140698;23;20243;-90
2022/12/02 01:26:21;;;;;;;;;;;;;;;;;;6144711;23;19925;-91
2022/12/02 01:28:49;;;;;;;;;;;;;;;;;;6138069;23;19955;-92
2022/12/02 01:31:21;;;;;;;;;;;;;;;;;;6140789;23;20334;-91
2022/12/02 01:33:47;;;;;;;;;;;;;;;;;;6140749;23;20103;-91
2022/12/02 01:36:13;;;;;;;;;;;;;;;;;;6142350;23;20534;-92
2022/12/02 01:38:42;;;;;;;;;;;;;;;;;;6139798;23;19917;-91
2022/12/02 01:41:11;;;;;;;;;;;;;;;;;;6142657;23;19921;-92
2022/12/02 01:43:39;;;;;;;;;;;;;;;;;;6142315;23;19920;-91
2022/12/02 01:46:13;;;;;;;;;;;;;;;;;;6144774;23;20003;-91
2022/12/02 01:48:41;;;;;;;;;;;;;;;;;;6142027;23;19920;-91
2022/12/02 01:51:13;;;;;;;;;;;;;;;;;;6145392;23;19921;-91
2022/12/02 01:53:40;;;;;;;;;;;;;;;;;;6143662;23;19928;-91
2022/12/02 01:56:09;;;;;;;;;;;;;;;;;;6144419;23;19932;-93
2022/12/02 01:58:40;;;;;;;;;;;;;;;;;;6136376;23;20019;-92
2022/12/02 02:01:17;;;;;;;;;;;;;;;;;;6111907;23;19967;-92
2022/12/02 02:03:45;;;;;;;;;;;;;;;;;;6113819;23;19947;-92
2022/12/02 02:06:19;;;;;;;;;;;;;;;;;;6140310;23;19935;-93
2022/12/02 02:08:51;;;;;;;;;;;;;;;;;;6140055;23;19948;-92
2022/12/02 02:11:20;;;;;;;;;;;;;;;;;;6140707;23;19948;-92
2022/12/02 02:13:55;;;;;;;;;;;;;;;;;;6140830;23;19920;-92
2022/12/02 02:16:21;;;;;;;;;;;;;;;;;;6118450;23;19925;-92
2022/12/02 02:18:50;;;;;;;;;;;;;;;;;;6141118;23;19920;-92
2022/12/02 02:21:26;;;;;;;;;;;;;;;;;;;;;
2022/12/02 02:23:57;;;;;;;;;;;;;;;;;;6146077;23;19920;-92
2022/12/02 02:26:31;;;;;;;;;;;;;;;;;;6142445;23;19931;-91
2022/12/02 02:28:57;;;;;;;;;;;;;;;;;;6146773;23;19920;-92
2022/12/02 02:31:23;;;;;;;;;;;;;;;;;;6142894;23;19917;-92
2022/12/02 02:33:52;;;;;;;;;;;;;;;;;;6142980;23;19920;-92
2022/12/02 02:36:23;;;;;;;;;;;;;;;;;;6143557;23;19927;-92
2022/12/02 02:38:51;;;;;;;;;;;;;;;;;;6139436;23;19928;-92
2022/12/02 02:41:25;;;;;;;;;;;;;;;;;;6142467;23;19924;-92
2022/12/02 02:44:03;;;;;;;;;;;;;;;;;;6144418;23;19931;-92
2022/12/02 02:46:38;;;;;;;;;;;;;;;;;;6139985;23;19924;-92
2022/12/02 02:49:06;;;;;;;;;;;;;;;;;;6137821;23;19920;-92
2022/12/02 02:51:35;;;;;;;;;;;;;;;;;;6140645;23;19921;-92
2022/12/02 02:54:04;;;;;;;;;;;;;;;;;;6143379;23;20022;-92
2022/12/02 02:56:33;;;;;;;;;;;;;;;;;;6144871;23;19975;-92
2022/12/02 02:58:59;;;;;;;;;;;;;;;;;;6148018;23;20306;-92
2022/12/02 03:01:25;;;;;;;;;;;;;;;;;;6143836;23;19943;-92
2022/12/02 03:04:08;;;;;;;;;;;;;;;;;;6149133;23;20047;-92
2022/12/02 03:06:36;;;;;;;;;;;;;;;;;;6144279;23;20246;-92
2022/12/02 03:09:05;;;;;;;;;;;;;;;;;;6144175;23;20270;-92
2022/12/02 03:11:39;;;;;;;;;;;;;;;;;;6139984;23;20025;-92
2022/12/02 03:14:05;;;;;;;;;;;;;;;;;;6142944;23;19957;-90
2022/12/02 03:16:31;;;;;;;;;;;;;;;;;;6140285;23;19920;-92
2022/12/02 03:19:00;;;;;;;;;;;;;;;;;;6143306;23;19920;-91
2022/12/02 03:21:41;;;;;;;;;;;;;;;;;;6142246;23;19920;-91
2022/12/02 03:24:08;;;;;;;;;;;;;;;;;;6142078;23;20323;-92
2022/12/02 03:26:37;;;;;;;;;;;;;;;;;;6140072;23;19963;-93
2022/12/02 03:29:08;;;;;;;;;;;;;;;;;;6116078;23;19921;-92
2022/12/02 03:31:34;;;;;;;;;;;;;;;;;;6136451;23;19921;-92
2022/12/02 03:34:00;;;;;;;;;;;;;;;;;;6141674;23;19921;-92
2022/12/02 03:36:32;;;;;;;;;;;;;;;;;;6141678;23;19921;-92
2022/12/02 03:39:01;;;;;;;;;;;;;;;;;;6142033;23;19920;-92
2022/12/02 03:41:27;;;;;;;;;;;;;;;;;;6139856;23;20297;-92
2022/12/02 03:43:59;;;;;;;;;;;;;;;;;;6142169;23;20672;-91
2022/12/02 03:46:25;;;;;;;;;;;;;;;;;;6140366;23;19943;-93
2022/12/02 03:49:03;;;;;;;;;;;;;;;;;;6143483;23;19920;-92
2022/12/02 03:51:32;;;;;;;;;;;;;;;;;;6140776;23;19917;-92
2022/12/02 03:53:58;;;;;;;;;;;;;;;;;;6141934;23;20601;-92
2022/12/02 03:56:27;;;;;;;;;;;;;;;;;;6137666;23;19935;-92
2022/12/02 03:59:01;;;;;;;;;;;;;;;;;;6139752;23;19916;-92
2022/12/02 04:01:28;;;;;;;;;;;;;;;;;;6138775;23;20010;-92
2022/12/02 04:03:56;;;;;;;;;;;;;;;;;;6141203;23;19920;-91
2022/12/02 04:06:25;;;;;;;;;;;;;;;;;;6140768;23;19924;-92
2022/12/02 04:08:51;;;;;;;;;;;;;;;;;;6139291;23;19982;-92
2022/12/02 04:11:17;;;;;;;;;;;;;;;;;;6165533;23;19984;-91
2022/12/02 04:16:32;;;;;;;;;;;;;;;;;;6140096;23;19930;-92
2022/12/02 04:18:58;;;;;;;;;;;;;;;;;;6141202;23;19926;-91
2022/12/02 04:21:24;;;;;;;;;;;;;;;;;;6139918;23;19921;-91
2022/12/02 04:23:53;;;;;;;;;;;;;;;;;;6139992;23;19995;-91
2022/12/02 04:26:22;;;;;;;;;;;;;;;;;;6140672;23;19929;-91
2022/12/02 04:28:50;;;;;;;;;;;;;;;;;;6138894;23;19943;-92
2022/12/02 04:31:16;;;;;;;;;;;;;;;;;;6143456;23;19916;-91
2022/12/02 04:33:42;;;;;;;;;;;;;;;;;;6140781;23;19928;-91
2022/12/02 04:36:08;;;;;;;;;;;;;;;;;;6142720;23;20330;-92
2022/12/02 04:38:34;;;;;;;;;;;;;;;;;;6140974;23;20015;-90
2022/12/02 04:41:03;;;;;;;;;;;;;;;;;;6142109;23;19963;-90
2022/12/02 04:43:29;;;;;;;;;;;;;;;;;;6140914;23;19943;-91
2022/12/02 04:45:58;;;;;;;;;;;;;;;;;;6142677;23;20290;-92
2022/12/02 04:48:32;;;;;;;;;;;;;;;;;;6141178;23;20368;-91
2022/12/02 04:50:58;;;;;;;;;;;;;;;;;;6141398;23;19920;-91
2022/12/02 04:53:29;;;;;;;;;;;;;;;;;;6151056;23;19925;-91
2022/12/02 04:56:07;;;;;;;;;;;;;;;;;;6155406;23;19978;-92
2022/12/02 04:58:49;;;;;;;;;;;;;;;;;;;;;
2022/12/02 05:04:27;;;;;;;;;;;;;;;;;;6170177;23;19920;-91
2022/12/02 05:10:15;;;;;;;;;;;;;;;;;;6178409;23;19975;-91
2022/12/02 05:12:53;;;;;;;;;;;;;;;;;;6154782;23;19995;-90
2022/12/02 05:21:51;;;;;;;;;;;;;;;;;;5999788;23;20709;-92
2022/12/02 05:27:12;;;;;;;;;;;;;;;;;;5972873;23;19925;-91
2022/12/02 05:30:07;;;;;;;;;;;;;;;;;;;;;
2022/12/02 05:35:49;;;;;;;;;;;;;;;;;;5943662;24;19922;-91
2022/12/02 05:38:45;;;;;;;;;;;;;;;;;;5924829;24;20042;-91
2022/12/02 05:41:32;;;;;;;;;;;;;;;;;;5891662;24;20345;-91
2022/12/02 05:44:17;;;;;;;;;;;;;;;;;;5915104;24;20765;-92
2022/12/02 05:46:49;;;;;;;;;;;;;;;;;;5884726;24;19979;-91
2022/12/02 05:52:39;;;;;;;;;;;;;;;;;;5963001;23;19922;-92
2022/12/02 05:55:15;;;;;;;;;;;;;;;;;;;;;
2022/12/02 05:57:50;;;;;;;;;;;;;;;;;;5991769;23;19974;-92
2022/12/02 06:00:40;;;;;;;;;;;;;;;;;;5940858;24;20360;-91
2022/12/02 06:12:39;;;;;;;;;;;;;;;;;;5940979;23;20256;-91
2022/12/02 06:15:13;;;;;;;;;;;;;;;;;;5974355;23;19954;-92
2022/12/02 06:17:45;;;;;;;;;;;;;;;;;;5947965;23;20069;-92
2022/12/02 06:23:43;;;;;;;;;;;;;;;;;;;;;
2022/12/02 06:26:31;;;;;;;;;;;;;;;;;;5990214;23;20348;-91
2022/12/02 06:34:57;;;;;;;;;;;;;;;;;;;;;
2022/12/02 06:37:58;;;;;;;;;;;;;;;;;;5955324;23;19926;-92
2022/12/02 06:43:34;;;;;;;;;;;;;;;;;;;;;
2022/12/02 06:46:37;;;;;;;;;;;;;;;;;;;;;
2022/12/02 06:55:08;;;;;;;;;;;;;;;;;;5998987;23;19937;-92
2022/12/02 06:57:59;;;;;;;;;;;;;;;;;;;;;
2022/12/02 07:04:03;;;;;;;;;;;;;;;;;;;;;
2022/12/02 07:06:38;;;;;;;;;;;;;;;;;;5993083;23;19937;-91
2022/12/02 07:15:14;;;;;;;;;;;;;;;;;;5929766;24;20526;-93
2022/12/02 07:18:30;;;;;;;;;;;;;;;;;;5928919;24;20288;-92
2022/12/02 07:24:24;;;;;;;;;;;;;;;;;;;;;
2022/12/02 07:30:46;;;;;;;;;;;;;;;;;;5865419;24;19931;-93
2022/12/02 07:36:06;;;;;;;;;;;;;;;;;;6255584;22;19919;-91
2022/12/02 07:38:39;;;;;;;;;;;;;;;;;;6206258;22;19919;-91
2022/12/02 07:41:08;;;;;;;;;;;;;;;;;;6207357;22;19926;-90
2022/12/02 07:43:34;;;;;;;;;;;;;;;;;;6202580;22;20395;-91
2022/12/02 07:46:00;;;;;;;;;;;;;;;;;;6209035;22;20243;-91
2022/12/02 07:48:32;;;;;;;;;;;;;;;;;;6204567;22;19973;-91
2022/12/02 07:50:58;;;;;;;;;;;;;;;;;;6214231;22;19919;-89
2022/12/02 07:53:24;;;;;;;;;;;;;;;;;;6231506;22;20228;-89
2022/12/02 07:55:50;;;;;;;;;;;;;;;;;;6222320;23;19927;-89
2022/12/02 07:58:16;;;;;;;;;;;;;;;;;;6226003;23;19919;-89
2022/12/02 08:00:42;;;;;;;;;;;;;;;;;;6228105;22;20244;-90
2022/12/02 08:03:08;;;;;;;;;;;;;;;;;;6207904;22;19953;-90
2022/12/02 08:05:34;;;;;;;;;;;;;;;;;;6229718;22;20077;-89
2022/12/02 08:08:00;;;;;;;;;;;;;;;;;;6232675;22;19919;-89
2022/12/02 08:10:29;;;;;;;;;;;;;;;;;;6233076;22;19976;-89
2022/12/02 08:12:55;;;;;;;;;;;;;;;;;;6234255;22;19919;-89
2022/12/02 08:15:21;;;;;;;;;;;;;;;;;;6231491;22;20002;-89
2022/12/02 08:17:47;;;;;;;;;;;;;;;;;;6232507;22;20325;-89
2022/12/02 08:20:13;;;;;;;;;;;;;;;;;;6234091;22;19923;-88
2022/12/02 08:22:39;;;;;;;;;;;;;;;;;;6229966;22;19915;-89
2022/12/02 08:25:04;;;;;;;;;;;;;;;;;;6232474;22;19972;-89
2022/12/02 08:27:30;;;;;;;;;;;;;;;;;;6229633;22;19951;-90
2022/12/02 08:29:56;;;;;;;;;;;;;;;;;;6231577;22;19990;-89
2022/12/02 08:32:22;;;;;;;;;;;;;;;;;;6231149;22;19919;-89
2022/12/02 08:34:48;;;;;;;;;;;;;;;;;;6230110;22;19968;-89
2022/12/02 08:37:14;;;;;;;;;;;;;;;;;;6233289;22;19923;-89
2022/12/02 08:39:40;;;;;;;;;;;;;;;;;;6231737;22;20283;-90
2022/12/02 08:42:06;;;;;;;;;;;;;;;;;;6232926;22;20275;-90
2022/12/02 08:44:32;;;;;;;;;;;;;;;;;;6231005;22;19972;-90
2022/12/02 08:46:58;;;;;;;;;;;;;;;;;;6233364;22;19941;-90
2022/12/02 08:49:24;;;;;;;;;;;;;;;;;;6233479;22;19934;-90
2022/12/02 08:51:50;;;;;;;;;;;;;;;;;;6229896;22;19925;-90
2022/12/02 08:54:16;;;;;;;;;;;;;;;;;;6232471;22;19977;-90
2022/12/02 08:56:42;;;;;;;;;;;;;;;;;;6230627;22;19919;-90
2022/12/02 08:59:08;;;;;;;;;;;;;;;;;;6228504;22;20249;-90
2022/12/02 09:01:34;;;;;;;;;;;;;;;;;;6228208;22;19926;-90
2022/12/02 09:04:00;;;;;;;;;;;;;;;;;;6209489;22;19973;-91
2022/12/02 09:06:29;;;;;;;;;;;;;;;;;;6232799;22;19954;-91
2022/12/02 09:08:55;;;;;;;;;;;;;;;;;;6205670;22;20371;-90
2022/12/02 09:11:21;;;;;;;;;;;;;;;;;;6207573;22;19920;-90
2022/12/02 09:13:47;;;;;;;;;;;;;;;;;;6227125;22;20271;-90
2022/12/02 09:16:13;;;;;;;;;;;;;;;;;;6230275;22;19976;-90
2022/12/02 09:18:39;;;;;;;;;;;;;;;;;;6231068;22;20516;-90
2022/12/02 09:21:05;;;;;;;;;;;;;;;;;;6234974;22;19923;-91
2022/12/02 09:23:31;;;;;;;;;;;;;;;;;;6230386;22;20016;-91
2022/12/02 09:25:57;;;;;;;;;;;;;;;;;;6233813;22;19931;-91
2022/12/02 09:28:22;;;;;;;;;;;;;;;;;;6233713;22;19923;-90
2022/12/02 09:30:48;;;;;;;;;;;;;;;;;;6233458;22;19922;-90
2022/12/02 09:33:14;;;;;;;;;;;;;;;;;;6233573;22;19938;-89
2022/12/02 09:35:40;;;;;;;;;;;;;;;;;;6232441;22;19957;-90
2022/12/02 09:38:06;;;;;;;;;;;;;;;;;;6235258;22;20293;-90
2022/12/02 09:40:32;;;;;;;;;;;;;;;;;;6230169;22;19919;-90
2022/12/02 09:42:58;;;;;;;;;;;;;;;;;;6234807;22;19973;-89
2022/12/02 09:45:24;;;;;;;;;;;;;;;;;;6232102;22;19931;-90
2022/12/02 09:47:50;;;;;;;;;;;;;;;;;;6232901;22;19922;-91
2022/12/02 09:50:16;;;;;;;;;;;;;;;;;;6213146;22;19964;-91
2022/12/02 09:52:42;;;;;;;;;;;;;;;;;;6206280;22;20332;-91
2022/12/02 09:55:08;;;;;;;;;;;;;;;;;;6206122;22;19919;-91
2022/12/02 09:57:34;;;;;;;;;;;;;;;;;;6205670;22;20000;-91
2022/12/02 10:00:02;;;;;;;;;;;;;;;;;;6232248;22;20390;-90
2022/12/02 10:02:28;;;;;;;;;;;;;;;;;;6231241;22;20142;-91
2022/12/02 10:04:54;;;;;;;;;;;;;;;;;;6232401;22;19930;-90
2022/12/02 10:07:20;;;;;;;;;;;;;;;;;;6229930;22;20332;-90
2022/12/02 10:09:46;;;;;;;;;;;;;;;;;;6230152;22;20627;-91
2022/12/02 10:12:12;;;;;;;;;;;;;;;;;;6234131;22;19927;-90
2022/12/02 10:14:38;;;;;;;;;;;;;;;;;;6232016;22;19958;-90
2022/12/02 10:17:03;;;;;;;;;;;;;;;;;;6231036;22;19946;-90
2022/12/02 10:19:29;;;;;;;;;;;;;;;;;;6231188;22;19919;-89
2022/12/02 10:21:55;;;;;;;;;;;;;;;;;;6227595;22;19977;-89
2022/12/02 10:24:21;;;;;;;;;;;;;;;;;;6233585;22;19926;-90
2022/12/02 10:26:47;;;;;;;;;;;;;;;;;;6230056;22;21006;-90
2022/12/02 10:29:13;;;;;;;;;;;;;;;;;;6235860;22;19930;-90
2022/12/02 10:31:39;;;;;;;;;;;;;;;;;;6229216;22;20257;-90
2022/12/02 10:34:05;;;;;;;;;;;;;;;;;;6234809;22;19922;-90
2022/12/02 10:36:31;;;;;;;;;;;;;;;;;;6253851;22;19926;-90
2022/12/02 10:38:57;;;;;;;;;;;;;;;;;;6231602;22;19919;-91
2022/12/02 10:41:24;;;;;;;;;;;;;;;;;;6233224;22;19977;-91
2022/12/02 10:43:49;;;;;;;;;;;;;;;;;;6231866;22;20390;-91
2022/12/02 10:46:15;;;;;;;;;;;;;;;;;;6234220;22;19923;-91
2022/12/02 10:48:41;;;;;;;;;;;;;;;;;;6231937;22;19919;-91
2022/12/02 10:51:07;;;;;;;;;;;;;;;;;;6234201;22;19919;-90
2022/12/02 10:53:33;;;;;;;;;;;;;;;;;;6230869;22;19923;-90
2022/12/02 10:55:59;;;;;;;;;;;;;;;;;;6232356;22;19926;-90
2022/12/02 10:58:25;;;;;;;;;;;;;;;;;;6233055;22;19947;-90
2022/12/02 11:00:51;;;;;;;;;;;;;;;;;;6227975;22;19957;-90
2022/12/02 11:03:19;;;;;;;;;;;;;;;;;;6227023;22;19919;-90
2022/12/02 11:05:45;;;;;;;;;;;;;;;;;;6227671;22;20005;-91
2022/12/02 11:08:11;;;;;;;;;;;;;;;;;;6231537;22;19951;-91
2022/12/02 11:10:37;;;;;;;;;;;;;;;;;;6229537;22;19972;-90
2022/12/02 11:13:03;;;;;;;;;;;;;;;;;;6235251;22;20485;-89
2022/12/02 11:15:29;;;;;;;;;;;;;;;;;;6257649;22;19919;-90
2022/12/02 11:17:56;;;;;;;;;;;;;;;;;;6210048;22;19934;-89
2022/12/02 11:20:21;;;;;;;;;;;;;;;;;;6231423;22;19989;-89
2022/12/02 11:22:48;;;;;;;;;;;;;;;;;;6228903;22;19978;-90
2022/12/02 11:25:14;;;;;;;;;;;;;;;;;;6233383;22;20271;-89
2022/12/02 11:27:40;;;;;;;;;;;;;;;;;;6228542;22;19980;-90
2022/12/02 11:30:06;;;;;;;;;;;;;;;;;;6234543;22;19916;-89
2022/12/02 11:32:32;;;;;;;;;;;;;;;;;;6230624;22;20425;-89
2022/12/02 11:34:58;;;;;;;;;;;;;;;;;;6235025;22;19922;-89
2022/12/02 11:37:24;;;;;;;;;;;;;;;;;;6230726;22;19939;-90
2022/12/02 11:39:50;;;;;;;;;;;;;;;;;;6227517;22;20312;-89
2022/12/02 11:42:16;;;;;;;;;;;;;;;;;;6209428;22;19915;-89
2022/12/02 11:44:42;;;;;;;;;;;;;;;;;;6204824;22;19923;-89
2022/12/02 11:47:08;;;;;;;;;;;;;;;;;;6231381;22;20000;-89
2022/12/02 11:49:34;;;;;;;;;;;;;;;;;;6204932;22;19919;-90
2022/12/02 11:52:00;;;;;;;;;;;;;;;;;;6232821;22;19925;-88
2022/12/02 11:54:29;;;;;;;;;;;;;;;;;;6231325;22;19919;-89
2022/12/02 11:56:55;;;;;;;;;;;;;;;;;;6233263;22;19919;-89
2022/12/02 11:59:21;;;;;;;;;;;;;;;;;;6232528;22;20244;-89
2022/12/02 12:01:47;;;;;;;;;;;;;;;;;;6228859;22;20410;-90
2022/12/02 12:04:13;;;;;;;;;;;;;;;;;;6232818;22;19951;-90
2022/12/02 12:06:39;;;;;;;;;;;;;;;;;;6231236;22;19922;-90
2022/12/02 12:09:05;;;;;;;;;;;;;;;;;;6232047;22;19919;-90
2022/12/02 12:11:33;;;;;;;;;;;;;;;;;;6230328;22;19961;-91
2022/12/02 12:13:59;;;;;;;;;;;;;;;;;;6230038;22;19919;-90
2022/12/02 12:16:25;;;;;;;;;;;;;;;;;;6231778;22;19958;-91
2022/12/02 12:18:51;;;;;;;;;;;;;;;;;;6229184;22;19972;-90
2022/12/02 12:21:17;;;;;;;;;;;;;;;;;;6231311;22;20333;-93
2022/12/02 12:23:43;;;;;;;;;;;;;;;;;;6231824;22;20225;-90
2022/12/02 12:26:09;;;;;;;;;;;;;;;;;;6228284;22;20063;-89
2022/12/02 12:28:35;;;;;;;;;;;;;;;;;;6225933;22;19994;-89
2022/12/02 12:31:01;;;;;;;;;;;;;;;;;;6254644;22;20752;-88
2022/12/02 12:33:27;;;;;;;;;;;;;;;;;;6230430;22;20016;-88
2022/12/02 12:35:53;;;;;;;;;;;;;;;;;;6234627;22;20033;-88
2022/12/02 12:38:19;;;;;;;;;;;;;;;;;;6234534;22;19919;-88
2022/12/02 12:40:45;;;;;;;;;;;;;;;;;;6232785;22;19927;-88
2022/12/02 12:43:11;;;;;;;;;;;;;;;;;;6232882;22;19962;-88
2022/12/02 12:45:37;;;;;;;;;;;;;;;;;;6204933;22;19934;-88
2022/12/02 12:48:03;;;;;;;;;;;;;;;;;;6204452;22;19927;-88
2022/12/02 12:50:29;;;;;;;;;;;;;;;;;;6232635;22;19953;-88
2022/12/02 12:52:55;;;;;;;;;;;;;;;;;;6210119;22;20387;-90
2022/12/02 12:55:21;;;;;;;;;;;;;;;;;;6236029;22;19919;-89
2022/12/02 12:57:47;;;;;;;;;;;;;;;;;;6232545;22;20301;-88
2022/12/02 13:00:12;;;;;;;;;;;;;;;;;;6236066;22;19923;-89
2022/12/02 13:02:38;;;;;;;;;;;;;;;;;;6232241;22;19919;-89
2022/12/02 13:05:04;;;;;;;;;;;;;;;;;;6230912;22;19986;-89
2022/12/02 13:07:30;;;;;;;;;;;;;;;;;;6234560;22;19926;-89
2022/12/02 13:09:56;;;;;;;;;;;;;;;;;;6234889;22;20170;-89
2022/12/02 13:12:22;;;;;;;;;;;;;;;;;;6236017;22;19946;-89
2022/12/02 13:14:48;;;;;;;;;;;;;;;;;;6231994;22;19934;-88
2022/12/02 13:17:14;;;;;;;;;;;;;;;;;;6233571;22;19919;-89
2022/12/02 13:19:40;;;;;;;;;;;;;;;;;;6230606;22;20225;-89
2022/12/02 13:22:06;;;;;;;;;;;;;;;;;;6232901;22;19926;-88
2022/12/02 13:24:32;;;;;;;;;;;;;;;;;;6230869;22;19923;-89
2022/12/02 13:26:58;;;;;;;;;;;;;;;;;;6233752;22;19919;-88
2022/12/02 13:29:24;;;;;;;;;;;;;;;;;;6233153;22;19919;-89
2022/12/02 13:31:50;;;;;;;;;;;;;;;;;;6226134;22;20021;-89
2022/12/02 13:34:16;;;;;;;;;;;;;;;;;;6231180;22;19926;-89
2022/12/02 13:36:42;;;;;;;;;;;;;;;;;;6230564;22;20329;-89
2022/12/02 13:39:10;;;;;;;;;;;;;;;;;;6230546;22;20430;-89
2022/12/02 13:41:36;;;;;;;;;;;;;;;;;;6230255;22;19927;-88
2022/12/02 13:44:02;;;;;;;;;;;;;;;;;;6207291;22;19919;-89
2022/12/02 13:46:28;;;;;;;;;;;;;;;;;;6201238;22;19965;-89
2022/12/02 13:48:54;;;;;;;;;;;;;;;;;;6206388;22;19958;-89
2022/12/02 13:51:20;;;;;;;;;;;;;;;;;;6230439;22;19926;-88
2022/12/02 13:53:46;;;;;;;;;;;;;;;;;;6227241;22;19919;-89
2022/12/02 13:56:11;;;;;;;;;;;;;;;;;;6230658;22;19919;-89
2022/12/02 13:58:37;;;;;;;;;;;;;;;;;;6225798;22;19923;-89
2022/12/02 14:01:03;;;;;;;;;;;;;;;;;;6232040;22;20036;-89
2022/12/02 14:03:29;;;;;;;;;;;;;;;;;;6232486;22;19919;-88
2022/12/02 14:05:55;;;;;;;;;;;;;;;;;;6233439;22;20445;-89
2022/12/02 14:08:21;;;;;;;;;;;;;;;;;;6232618;22;20341;-88
2022/12/02 14:10:53;;;;;;;;;;;;;;;;;;6227702;22;20303;-89
2022/12/02 14:13:22;;;;;;;;;;;;;;;;;;6235981;22;20288;-88
2022/12/02 14:15:51;;;;;;;;;;;;;;;;;;6231289;22;20334;-89
2022/12/02 14:18:22;;;;;;;;;;;;;;;;;;6211725;22;19981;-88
2022/12/02 14:20:48;;;;;;;;;;;;;;;;;;6207977;22;19919;-88
2022/12/02 14:23:14;;;;;;;;;;;;;;;;;;6263741;22;19919;-89
2022/12/02 14:25:51;;;;;;;;;;;;;;;;;;6258386;22;20312;-88
2022/12/02 14:28:17;;;;;;;;;;;;;;;;;;6237162;22;19953;-89
2022/12/02 14:30:46;;;;;;;;;;;;;;;;;;6207985;22;19923;-88
2022/12/02 14:33:12;;;;;;;;;;;;;;;;;;6236946;22;19919;-89
2022/12/02 14:35:38;;;;;;;;;;;;;;;;;;6208597;22;19919;-89
2022/12/02 14:38:04;;;;;;;;;;;;;;;;;;6236227;22;19965;-88
2022/12/02 14:40:32;;;;;;;;;;;;;;;;;;6232952;22;19919;-88
2022/12/02 14:51:40;;;;;;;;;;;;;;;;;;6134596;23;19916;-89
2022/12/02 14:54:06;;;;;;;;;;;;;;;;;;6112520;23;20018;-90
2022/12/02 14:56:35;;;;;;;;;;;;;;;;;;6138282;23;19916;-89
2022/12/02 14:59:03;;;;;;;;;;;;;;;;;;6138882;23;19931;-89
2022/12/02 15:01:29;;;;;;;;;;;;;;;;;;6135896;23;19920;-89
2022/12/02 15:03:58;;;;;;;;;;;;;;;;;;6138523;23;19929;-89
2022/12/02 15:06:24;;;;;;;;;;;;;;;;;;6140438;23;20458;-89
2022/12/02 15:08:58;;;;;;;;;;;;;;;;;;6137721;23;19927;-90
2022/12/02 15:17:12;;;;;;;;;;;;;;;;;;6225009;22;19965;-89
2022/12/02 15:19:38;;;;;;;;;;;;;;;;;;6231596;22;20351;-89
2022/12/02 15:22:04;;;;;;;;;;;;;;;;;;6233130;22;20325;-89
2022/12/02 15:24:32;;;;;;;;;;;;;;;;;;6232785;22;19955;-89
2022/12/02 15:27:02;;;;;;;;;;;;;;;;;;6231810;22;20229;-89
2022/12/02 15:29:30;;;;;;;;;;;;;;;;;;6233666;22;19926;-89
2022/12/02 15:31:56;;;;;;;;;;;;;;;;;;6208522;22;19923;-88
2022/12/02 15:34:22;;;;;;;;;;;;;;;;;;6229990;22;19919;-89
2022/12/02 15:36:48;;;;;;;;;;;;;;;;;;6230997;22;19926;-89
2022/12/02 15:39:17;;;;;;;;;;;;;;;;;;6207316;22;19920;-88
2022/12/02 15:41:43;;;;;;;;;;;;;;;;;;6230391;22;20064;-89
2022/12/02 15:44:09;;;;;;;;;;;;;;;;;;6232812;22;20010;-88
2022/12/02 15:46:35;;;;;;;;;;;;;;;;;;6228883;22;19942;-89
2022/12/02 15:49:01;;;;;;;;;;;;;;;;;;6230491;22;19930;-89
2022/12/02 15:51:27;;;;;;;;;;;;;;;;;;6229066;22;19925;-89
2022/12/02 15:53:54;;;;;;;;;;;;;;;;;;6211390;22;19923;-89
2022/12/02 15:56:19;;;;;;;;;;;;;;;;;;6236980;22;19919;-89
2022/12/02 15:58:48;;;;;;;;;;;;;;;;;;6207860;22;20304;-89
2022/12/02 16:01:14;;;;;;;;;;;;;;;;;;6208823;22;19926;-89
2022/12/02 16:03:40;;;;;;;;;;;;;;;;;;6203534;22;20479;-89
2022/12/02 16:06:06;;;;;;;;;;;;;;;;;;6207288;22;19923;-89
2022/12/02 16:08:32;;;;;;;;;;;;;;;;;;6230965;22;19925;-88
2022/12/02 16:10:58;;;;;;;;;;;;;;;;;;6230700;22;19915;-88
2022/12/02 16:13:24;;;;;;;;;;;;;;;;;;6231589;22;19929;-88
2022/12/02 16:15:50;;;;;;;;;;;;;;;;;;6208159;22;19919;-88
2022/12/02 16:18:16;;;;;;;;;;;;;;;;;;6230930;22;19919;-88
2022/12/02 16:20:41;;;;;;;;;;;;;;;;;;6203493;22;19919;-88
2022/12/02 16:23:07;;;;;;;;;;;;;;;;;;6234951;22;19968;-88
2022/12/02 16:25:33;;;;;;;;;;;;;;;;;;6206383;22;19924;-88
2022/12/02 16:27:59;;;;;;;;;;;;;;;;;;6206530;22;20324;-88
2022/12/02 16:30:25;;;;;;;;;;;;;;;;;;6204720;22;19919;-88
2022/12/02 16:32:51;;;;;;;;;;;;;;;;;;6228958;22;20009;-88
2022/12/02 16:35:17;;;;;;;;;;;;;;;;;;6231856;22;19919;-88
2022/12/02 16:37:43;;;;;;;;;;;;;;;;;;6203113;22;20055;-88
2022/12/02 16:40:09;;;;;;;;;;;;;;;;;;6205602;22;19972;-88
2022/12/02 16:42:35;;;;;;;;;;;;;;;;;;6230817;22;19988;-88
2022/12/02 16:45:01;;;;;;;;;;;;;;;;;;6205243;22;19942;-88
2022/12/02 16:47:27;;;;;;;;;;;;;;;;;;6231931;22;19919;-88
2022/12/02 16:49:53;;;;;;;;;;;;;;;;;;6205653;22;19923;-88
2022/12/02 16:52:19;;;;;;;;;;;;;;;;;;6230179;22;19915;-88
2022/12/02 16:54:45;;;;;;;;;;;;;;;;;;6202916;22;19927;-88
2022/12/02 16:57:11;;;;;;;;;;;;;;;;;;6209178;22;19941;-88
2022/12/02 16:59:37;;;;;;;;;;;;;;;;;;6228136;22;19924;-88
2022/12/02 17:02:03;;;;;;;;;;;;;;;;;;6201164;22;19966;-89
2022/12/02 17:04:29;;;;;;;;;;;;;;;;;;6204383;22;20340;-93
2022/12/02 17:06:55;;;;;;;;;;;;;;;;;;6206150;22;19919;-88
2022/12/02 17:09:21;;;;;;;;;;;;;;;;;;6204823;22;19925;-88
2022/12/02 17:11:47;;;;;;;;;;;;;;;;;;6228646;22;20247;-89
2022/12/02 17:14:13;;;;;;;;;;;;;;;;;;6227402;22;20308;-88
2022/12/02 17:16:39;;;;;;;;;;;;;;;;;;6205335;22;19922;-88
2022/12/02 17:19:05;;;;;;;;;;;;;;;;;;6206010;22;19919;-88
2022/12/02 17:21:31;;;;;;;;;;;;;;;;;;6202848;22;19919;-88
2022/12/02 17:23:57;;;;;;;;;;;;;;;;;;6199954;22;19923;-88
2022/12/02 17:26:23;;;;;;;;;;;;;;;;;;6196824;22;19927;-88
2022/12/02 17:28:49;;;;;;;;;;;;;;;;;;6219771;22;19973;-88
2022/12/02 17:31:14;;;;;;;;;;;;;;;;;;6223310;22;19919;-89
2022/12/02 17:33:40;;;;;;;;;;;;;;;;;;6199567;22;19930;-88
2022/12/02 17:36:06;;;;;;;;;;;;;;;;;;6202211;22;19951;-88
2022/12/02 17:38:49;;;;;;;;;;;;;;;;;;6225605;22;19927;-87
2022/12/02 17:41:15;;;;;;;;;;;;;;;;;;6224493;22;19973;-88
2022/12/02 17:43:41;;;;;;;;;;;;;;;;;;6253891;22;19919;-88
2022/12/02 17:46:07;;;;;;;;;;;;;;;;;;6203298;22;19923;-87
2022/12/02 17:48:33;;;;;;;;;;;;;;;;;;6224256;22;19967;-87
2022/12/02 17:50:59;;;;;;;;;;;;;;;;;;6228637;22;20060;-87
2022/12/02 17:53:25;;;;;;;;;;;;;;;;;;6204271;22;20240;-87
2022/12/02 17:55:51;;;;;;;;;;;;;;;;;;6203563;22;19920;-88
2022/12/02 17:58:17;;;;;;;;;;;;;;;;;;6228447;22;19926;-88
2022/12/02 18:00:43;;;;;;;;;;;;;;;;;;6201887;22;19923;-88
2022/12/02 18:03:09;;;;;;;;;;;;;;;;;;6202542;22;19968;-87
2022/12/02 18:05:37;;;;;;;;;;;;;;;;;;6227577;22;19923;-88
2022/12/02 18:08:03;;;;;;;;;;;;;;;;;;6227360;22;19973;-88
2022/12/02 18:10:29;;;;;;;;;;;;;;;;;;6227246;22;20002;-88
2022/12/02 18:12:55;;;;;;;;;;;;;;;;;;6205027;22;19922;-88
2022/12/02 18:15:21;;;;;;;;;;;;;;;;;;6204397;22;20068;-87
2022/12/02 18:17:47;;;;;;;;;;;;;;;;;;6198241;22;20334;-88
2022/12/02 18:20:13;;;;;;;;;;;;;;;;;;6205886;22;20248;-88
2022/12/02 18:22:39;;;;;;;;;;;;;;;;;;6205478;22;19923;-88
2022/12/02 18:25:05;;;;;;;;;;;;;;;;;;6205785;22;19926;-87
2022/12/02 18:27:31;;;;;;;;;;;;;;;;;;6205310;22;20442;-88
2022/12/02 18:29:57;;;;;;;;;;;;;;;;;;6232522;22;19919;-88